Time;durP1;ratioP1;P1;durP2;ratioP2;P2;SDS_P1;SDS_P2;PMS_P1;PMS_P2;Temp;Humidity;BMP_temperature;BMP_pressure;BME280_temperature;BME280_humidity;BME280_pressure;Samples;Min_cycle;Max_cycle;Signal;HPM_P1;HPM_P2
2022/10/27 00:00:43;;;;;;;3.42;1.92;;;15.70;99.70;;;;;;5078449;28;20016;-77
2022/10/27 00:03:11;;;;;;;4.97;1.95;;;15.70;99.60;;;;;;5077474;28;20052;-77
2022/10/27 00:05:36;;;;;;;2.92;1.90;;;15.70;99.60;;;;;;5079072;28;20086;-77
2022/10/27 00:08:02;;;;;;;2.92;1.98;;;15.70;99.60;;;;;;5077322;28;20021;-77
2022/10/27 00:10:28;;;;;;;3.97;2.00;;;15.70;99.60;;;;;;5077354;28;20021;-78
2022/10/27 00:12:54;;;;;;;4.72;2.05;;;15.60;99.50;;;;;;5078354;28;20032;-77
2022/10/27 00:15:20;;;;;;;4.82;2.08;;;15.60;99.60;;;;;;5078455;28;20056;-77
2022/10/27 00:17:45;;;;;;;3.78;2.05;;;15.60;99.60;;;;;;5076890;28;20067;-76
2022/10/27 00:20:12;;;;;;;4.97;2.20;;;15.60;99.60;;;;;;5078508;28;20027;-78
2022/10/27 00:22:37;;;;;;;5.90;1.90;;;15.60;99.40;;;;;;5076994;28;20024;-76
2022/10/27 00:25:04;;;;;;;4.72;1.92;;;15.60;99.60;;;;;;5078401;28;20028;-76
2022/10/27 00:27:30;;;;;;;3.67;2.00;;;15.50;99.50;;;;;;5076557;28;20553;-76
2022/10/27 00:29:56;;;;;;;3.60;1.98;;;15.50;99.50;;;;;;5078340;28;20017;-76
2022/10/27 00:32:22;;;;;;;4.80;1.95;;;15.50;99.60;;;;;;5076764;28;20028;-77
2022/10/27 00:34:48;;;;;;;6.13;2.00;;;15.50;99.60;;;;;;5078357;28;20099;-76
2022/10/27 00:37:13;;;;;;;4.03;2.05;;;15.50;99.60;;;;;;5077810;28;20088;-77
2022/10/27 00:39:39;;;;;;;4.38;2.03;;;15.50;99.70;;;;;;5077963;28;20029;-77
2022/10/27 00:42:05;;;;;;;3.72;2.05;;;15.50;99.60;;;;;;5078066;28;20028;-77
2022/10/27 00:44:37;;;;;;;3.30;2.08;;;15.50;99.70;;;;;;5078103;28;20431;-79
2022/10/27 00:47:08;;;;;;;4.07;1.80;;;15.50;99.60;;;;;;5078039;28;20056;-79
2022/10/27 00:49:40;;;;;;;3.35;2.03;;;15.40;99.70;;;;;;5077901;28;20082;-79
2022/10/27 00:52:27;;;;;;;4.65;2.25;;;15.40;99.60;;;;;;5076490;28;20054;-78
2022/10/27 00:54:55;;;;;;;4.43;2.05;;;15.40;99.70;;;;;;5077886;28;20028;-78
2022/10/27 00:57:21;;;;;;;4.25;2.00;;;15.40;99.70;;;;;;5077623;28;20056;-78
2022/10/27 00:59:47;;;;;;;4.13;1.95;;;15.40;99.70;;;;;;5077380;28;20023;-78
2022/10/27 01:02:14;;;;;;;4.20;2.10;;;15.40;99.70;;;;;;5077628;28;20031;-78
2022/10/27 01:04:52;;;;;;;5.05;1.92;;;15.50;99.90;;;;;;5076410;28;20083;-77
2022/10/27 01:07:19;;;;;;;5.68;1.88;;;15.50;99.90;;;;;;5076498;28;20060;-78
2022/10/27 01:09:45;;;;;;;3.90;2.00;;;15.50;99.70;;;;;;5077485;28;20020;-78
2022/10/27 01:12:11;;;;;;;6.43;2.20;;;15.50;99.70;;;;;;5077557;28;20066;-77
2022/10/27 01:14:37;;;;;;;4.10;1.85;;;15.50;99.80;;;;;;5075838;28;20024;-78
2022/10/27 01:17:27;;;;;;;4.55;1.90;;;15.50;99.80;;;;;;5077464;28;20119;-77
2022/10/27 01:20:30;;;;;;;5.05;2.00;;;15.50;99.80;;;;;;5076326;28;20470;-77
2022/10/27 01:23:13;;;;;;;3.83;2.00;;;15.50;99.60;;;;;;5075745;28;20024;-78
2022/10/27 01:26:03;;;;;;;2.85;2.03;;;15.40;99.70;;;;;;5076416;28;20025;-78
2022/10/27 01:28:31;;;;;;;5.57;2.42;;;15.50;99.80;;;;;;5077529;28;20477;-78
2022/10/27 01:30:56;;;;;;;6.03;2.30;;;15.50;99.70;;;;;;5076057;28;20556;-79
2022/10/27 01:33:28;;;;;;;6.05;2.50;;;15.40;99.90;;;;;;5075912;28;20048;-78
2022/10/27 01:36:12;;;;;;;5.82;2.45;;;15.50;99.90;;;;;;5075826;28;20017;-78
2022/10/27 01:38:49;;;;;;;5.90;2.67;;;15.50;99.90;;;;;;5076266;28;20020;-78
2022/10/27 01:41:19;;;;;;;4.15;2.55;;;15.50;99.90;;;;;;5065256;28;20392;-76
2022/10/27 01:43:49;;;;;;;4.35;2.65;;;15.60;99.80;;;;;;5075759;28;20029;-77
2022/10/27 01:46:16;;;;;;;6.50;2.63;;;15.50;99.80;;;;;;5076046;28;20146;-77
2022/10/27 01:48:42;;;;;;;5.22;2.65;;;15.50;99.70;;;;;;5076921;28;20029;-77
2022/10/27 01:51:08;;;;;;;6.43;2.60;;;15.50;99.70;;;;;;5077073;28;20103;-78
2022/10/27 01:53:40;;;;;;;5.72;2.65;;;15.50;99.60;;;;;;5076458;28;20823;-76
2022/10/27 01:56:44;;;;;;;4.30;2.50;;;15.50;99.80;;;;;;5075629;28;20025;-77
2022/10/27 01:59:20;;;;;;;4.00;2.17;;;15.50;99.70;;;;;;5023010;28;20029;-76
2022/10/27 02:02:13;;;;;;;3.80;2.25;;;15.50;99.80;;;;;;5069984;28;20035;-77
2022/10/27 02:04:58;;;;;;;5.15;2.30;;;15.50;99.80;;;;;;5086678;28;20402;-78
2022/10/27 02:07:42;;;;;;;3.90;2.00;;;15.50;99.70;;;;;;5071309;28;20158;-77
2022/10/27 02:10:23;;;;;;;7.35;2.33;;;15.50;99.50;;;;;;5068824;28;20031;-77
2022/10/27 02:12:50;;;;;;;4.40;2.20;;;15.50;99.60;;;;;;5078163;28;20029;-77
2022/10/27 02:15:47;;;;;;;4.45;2.28;;;15.50;99.60;;;;;;5061728;28;20021;-77
2022/10/27 02:18:28;;;;;;;5.80;2.42;;;15.50;99.60;;;;;;5074550;28;20048;-77
2022/10/27 02:20:58;;;;;;;3.70;1.80;;;15.50;99.60;;;;;;5068911;28;20020;-77
2022/10/27 02:23:24;;;;;;;5.32;2.20;;;15.50;99.80;;;;;;5071477;28;20028;-77
2022/10/27 02:25:59;;;;;;;4.15;1.90;;;15.50;99.70;;;;;;5071072;28;20111;-78
2022/10/27 02:28:31;;;;;;;4.13;2.10;;;15.50;99.90;;;;;;5067332;28;20078;-78
2022/10/27 02:30:59;;;;;;;5.60;1.90;;;15.50;99.80;;;;;;5075253;28;20124;-78
2022/10/27 02:33:25;;;;;;;4.82;2.17;;;15.60;99.90;;;;;;5069649;28;20025;-77
2022/10/27 02:35:52;;;;;;;3.08;1.95;;;15.60;99.80;;;;;;5066682;28;20389;-78
2022/10/27 02:38:18;;;;;;;4.22;2.20;;;15.60;99.80;;;;;;5074460;28;20046;-78
2022/10/27 02:40:43;;;;;;;4.68;2.00;;;15.60;99.90;;;;;;5059667;28;20420;-78
2022/10/27 02:43:09;;;;;;;4.10;2.20;;;15.70;99.90;;;;;;5075115;28;20412;-78
2022/10/27 02:45:35;;;;;;;3.97;1.98;;;15.70;99.80;;;;;;5072121;28;21782;-78
2022/10/27 02:48:00;;;;;;;4.47;1.75;;;15.70;99.70;;;;;;5075116;28;20473;-77
2022/10/27 02:50:26;;;;;;;3.20;1.95;;;15.70;99.70;;;;;;5067600;28;20025;-77
2022/10/27 02:52:51;;;;;;;4.13;1.98;;;15.70;99.70;;;;;;5077948;28;20089;-77
2022/10/27 02:55:17;;;;;;;4.03;2.00;;;15.70;99.70;;;;;;5079768;28;20019;-78
2022/10/27 02:57:45;;;;;;;3.95;2.03;;;15.70;99.70;;;;;;5078594;28;20048;-77
2022/10/27 03:00:11;;;;;;;4.80;1.83;;;15.70;99.80;;;;;;5078354;28;20454;-78
2022/10/27 03:02:37;;;;;;;4.70;1.65;;;15.70;99.70;;;;;;5079174;28;20078;-78
2022/10/27 03:05:02;;;;;;;3.45;1.83;;;15.80;99.80;;;;;;5078819;28;20028;-78
2022/10/27 03:07:28;;;;;;;4.05;1.77;;;15.80;99.70;;;;;;5077377;28;20040;-78
2022/10/27 03:09:54;;;;;;;5.60;1.85;;;15.80;99.80;;;;;;5078344;28;20036;-78
2022/10/27 03:12:20;;;;;;;3.88;1.67;;;15.80;99.70;;;;;;5078386;28;20111;-78
2022/10/27 03:14:45;;;;;;;5.80;2.05;;;15.80;99.70;;;;;;5079717;28;20032;-79
2022/10/27 03:17:11;;;;;;;3.15;1.77;;;15.80;99.60;;;;;;5078006;28;20045;-78
2022/10/27 03:19:36;;;;;;;2.80;1.52;;;15.80;99.60;;;;;;5078272;28;20033;-77
2022/10/27 03:22:02;;;;;;;4.18;1.70;;;15.90;99.70;;;;;;5079542;28;20032;-77
2022/10/27 03:24:28;;;;;;;5.47;2.03;;;15.90;99.60;;;;;;5079467;28;21347;-78
2022/10/27 03:26:53;;;;;;;2.58;1.77;;;16.00;99.80;;;;;;5078149;28;20157;-78
2022/10/27 03:29:19;;;;;;;2.78;1.83;;;16.00;99.50;;;;;;5079631;28;20166;-79
2022/10/27 03:31:44;;;;;;;4.13;1.75;;;16.00;99.40;;;;;;5079720;28;20524;-80
2022/10/27 03:34:10;;;;;;;3.28;1.70;;;16.00;99.40;;;;;;5079458;28;20451;-79
2022/10/27 03:36:36;;;;;;;4.05;1.67;;;16.00;99.40;;;;;;5077728;28;20052;-79
2022/10/27 03:39:02;;;;;;;3.03;1.48;;;16.00;99.40;;;;;;5077808;28;20485;-79
2022/10/27 03:41:28;;;;;;;3.97;1.48;;;16.10;99.40;;;;;;5078287;28;20473;-78
2022/10/27 03:43:53;;;;;;;4.72;2.00;;;16.00;99.50;;;;;;5070730;28;20094;-77
2022/10/27 03:46:19;;;;;;;3.88;1.67;;;16.10;99.50;;;;;;5079195;28;20054;-78
2022/10/27 03:48:45;;;;;;;3.10;1.80;;;16.10;99.40;;;;;;5077705;28;20036;-78
2022/10/27 03:51:10;;;;;;;2.97;1.70;;;16.10;99.40;;;;;;5078071;28;20051;-78
2022/10/27 03:53:36;;;;;;;5.30;1.98;;;16.10;99.40;;;;;;5078479;28;20500;-78
2022/10/27 03:56:02;;;;;;;2.47;1.52;;;16.10;99.40;;;;;;5080227;28;20488;-78
2022/10/27 03:58:27;;;;;;;4.53;1.63;;;16.10;99.40;;;;;;5077690;28;20128;-78
2022/10/27 04:00:53;;;;;;;5.28;1.98;;;16.10;99.40;;;;;;5077566;28;20488;-78
2022/10/27 04:03:19;;;;;;;4.55;1.70;;;16.10;99.40;;;;;;5078128;28;20495;-78
2022/10/27 04:05:49;;;;;;;5.43;1.95;;;16.10;99.40;;;;;;5077487;28;20024;-78
2022/10/27 04:08:14;;;;;;;4.55;1.55;;;16.00;99.40;;;;;;5077221;28;20034;-78
2022/10/27 04:10:40;;;;;;;3.10;1.80;;;16.10;99.50;;;;;;5077619;28;20467;-78
2022/10/27 04:13:06;;;;;;;3.72;1.50;;;16.10;99.40;;;;;;5076895;28;20540;-80
2022/10/27 04:15:31;;;;;;;4.32;1.50;;;16.10;99.90;;;;;;5078420;28;20033;-80
2022/10/27 04:17:58;;;;;;;2.55;1.40;;;16.10;99.50;;;;;;5076125;28;20045;-80
2022/10/27 04:20:25;;;;;;;4.88;1.98;;;16.10;99.50;;;;;;5075413;28;20020;-80
2022/10/27 04:22:51;;;;;;;4.13;1.70;;;16.10;99.50;;;;;;5076210;28;20528;-79
2022/10/27 04:25:16;;;;;;;3.40;1.70;;;16.10;99.60;;;;;;5066020;28;20016;-79
2022/10/27 04:27:43;;;;;;;3.05;1.67;;;16.10;99.60;;;;;;5074279;28;20460;-79
2022/10/27 04:30:09;;;;;;;4.85;1.88;;;16.10;99.70;;;;;;5071199;28;20021;-79
2022/10/27 04:32:35;;;;;;;3.85;1.73;;;16.10;99.70;;;;;;5065599;28;20040;-80
2022/10/27 04:35:00;;;;;;;4.22;1.48;;;16.10;99.80;;;;;;5069000;28;20032;-79
2022/10/27 04:37:26;;;;;;;6.43;1.70;;;16.10;99.70;;;;;;5077935;28;20096;-80
2022/10/27 04:39:52;;;;;;;4.32;2.05;;;16.20;99.70;;;;;;5076143;28;20021;-81
2022/10/27 04:42:17;;;;;;;3.92;1.77;;;16.20;99.70;;;;;;5072012;28;20029;-82
2022/10/27 04:44:43;;;;;;;2.75;1.52;;;16.20;99.60;;;;;;5077559;28;20066;-81
2022/10/27 04:47:08;;;;;;;4.43;1.52;;;16.20;99.60;;;;;;5073062;28;20029;-81
2022/10/27 04:49:34;;;;;;;2.58;1.70;;;16.20;99.70;;;;;;5074557;28;20035;-79
2022/10/27 04:52:00;;;;;;;5.15;1.95;;;16.20;99.70;;;;;;5074456;28;20043;-79
2022/10/27 04:54:25;;;;;;;4.30;1.80;;;16.20;99.70;;;;;;5069299;28;20036;-79
2022/10/27 04:56:51;;;;;;;3.53;1.55;;;16.20;99.70;;;;;;5075605;28;20052;-79
2022/10/27 04:59:16;;;;;;;6.45;2.10;;;16.10;99.60;;;;;;5072442;28;20052;-79
2022/10/27 05:01:42;;;;;;;4.88;1.85;;;16.10;99.70;;;;;;5074606;28;20611;-78
2022/10/27 05:04:08;;;;;;;3.50;1.65;;;16.20;99.80;;;;;;5067163;28;20024;-80
2022/10/27 05:06:33;;;;;;;5.68;1.60;;;16.10;99.80;;;;;;5076556;28;20044;-80
2022/10/27 05:08:59;;;;;;;3.70;1.80;;;16.10;99.70;;;;;;5075898;28;20024;-80
2022/10/27 05:11:24;;;;;;;4.57;1.98;;;16.10;99.80;;;;;;5063694;28;20132;-80
2022/10/27 05:13:50;;;;;;;5.85;1.90;;;16.10;99.90;;;;;;5066849;28;20037;-79
2022/10/27 05:16:17;;;;;;;6.32;1.90;;;16.10;99.90;;;;;;5059250;28;20041;-79
2022/10/27 05:18:43;;;;;;;7.18;1.95;;;16.10;99.90;;;;;;5077408;28;20108;-79
2022/10/27 05:21:09;;;;;;;5.28;1.80;;;16.10;99.90;;;;;;5075677;28;20066;-79
2022/10/27 05:23:34;;;;;;;5.32;2.20;;;16.00;99.90;;;;;;5075719;28;20020;-79
2022/10/27 05:26:00;;;;;;;4.03;1.98;;;16.10;99.90;;;;;;5073811;28;20033;-79
2022/10/27 05:28:25;;;;;;;5.13;2.17;;;16.10;99.90;;;;;;5062479;28;20435;-78
2022/10/27 05:30:57;;;;;;;6.20;2.33;;;16.10;99.90;;;;;;5075029;28;20500;-79
2022/10/27 05:33:23;;;;;;;4.47;2.10;;;16.10;99.90;;;;;;5074026;28;21590;-79
2022/10/27 05:35:49;;;;;;;6.60;2.30;;;16.10;99.90;;;;;;5075712;28;20150;-79
2022/10/27 05:38:15;;;;;;;4.25;2.30;;;16.10;99.90;;;;;;5074626;28;20354;-79
2022/10/27 05:40:41;;;;;;;4.30;1.77;;;16.10;99.90;;;;;;5062969;28;20025;-79
2022/10/27 05:43:08;;;;;;;5.75;2.03;;;16.10;99.90;;;;;;5065272;28;20028;-79
2022/10/27 05:45:33;;;;;;;4.75;2.10;;;16.10;99.90;;;;;;5077023;28;20036;-79
2022/10/27 05:48:08;;;;;;;3.90;2.05;;;16.10;99.90;;;;;;5075441;28;20111;-78
2022/10/27 05:50:34;;;;;;;4.57;2.00;;;16.10;99.90;;;;;;5069411;28;20025;-79
2022/10/27 05:53:00;;;;;;;4.30;1.80;;;16.10;99.90;;;;;;5063944;28;20395;-80
2022/10/27 05:55:26;;;;;;;3.92;1.75;;;16.10;99.90;;;;;;5066866;28;20111;-79
2022/10/27 05:57:59;;;;;;;5.47;1.95;;;16.20;99.90;;;;;;5075218;28;20032;-80
2022/10/27 06:00:29;;;;;;;6.18;2.13;;;16.20;99.90;;;;;;5063331;28;20029;-79
2022/10/27 06:02:57;;;;;;;3.65;1.80;;;16.20;99.90;;;;;;5076825;28;20055;-78
2022/10/27 06:05:24;;;;;;;5.15;2.20;;;16.20;99.90;;;;;;5075815;28;20016;-79
2022/10/27 06:07:49;;;;;;;4.60;2.30;;;16.20;99.90;;;;;;5073327;28;20035;-79
2022/10/27 06:10:15;;;;;;;5.10;2.20;;;16.20;99.90;;;;;;5072317;28;20032;-78
2022/10/27 06:12:40;;;;;;;6.47;2.20;;;16.20;99.90;;;;;;5071409;28;20047;-78
2022/10/27 06:15:07;;;;;;;4.40;1.88;;;16.20;99.90;;;;;;5064865;28;20464;-80
2022/10/27 06:17:32;;;;;;;6.03;1.98;;;16.30;99.90;;;;;;5076321;28;20119;-80
2022/10/27 06:19:58;;;;;;;5.55;2.30;;;16.30;99.90;;;;;;5074700;28;20117;-79
2022/10/27 06:22:24;;;;;;;5.13;2.15;;;16.30;99.90;;;;;;5075778;28;20025;-81
2022/10/27 06:24:49;;;;;;;9.75;2.22;;;16.30;99.90;;;;;;5075381;28;20396;-81
2022/10/27 06:27:15;;;;;;;3.67;1.90;;;16.30;99.90;;;;;;5073056;28;20032;-80
2022/10/27 06:29:40;;;;;;;5.57;2.10;;;16.30;99.80;;;;;;5074709;28;20043;-80
2022/10/27 06:32:06;;;;;;;5.05;1.83;;;16.30;99.80;;;;;;5062254;28;20366;-80
2022/10/27 06:34:32;;;;;;;4.47;2.30;;;16.30;99.90;;;;;;5075308;28;20431;-80
2022/10/27 06:36:57;;;;;;;5.38;2.38;;;16.30;99.90;;;;;;5080428;28;20496;-78
2022/10/27 06:39:23;;;;;;;5.80;2.13;;;16.20;99.90;;;;;;5079111;28;20021;-81
2022/10/27 06:41:48;;;;;;;6.40;2.33;;;16.30;99.90;;;;;;5078616;28;20024;-81
2022/10/27 06:44:14;;;;;;;5.00;2.30;;;16.20;99.90;;;;;;5087432;28;20066;-80
2022/10/27 06:46:40;;;;;;;5.55;2.00;;;16.30;99.90;;;;;;5078030;28;20028;-79
2022/10/27 06:49:05;;;;;;;5.03;2.42;;;16.20;99.90;;;;;;5077688;28;20044;-81
2022/10/27 06:51:32;;;;;;;4.53;2.38;;;16.20;99.90;;;;;;5077894;28;20033;-80
2022/10/27 06:53:57;;;;;;;6.47;2.67;;;16.20;99.90;;;;;;5079069;28;20060;-79
2022/10/27 06:56:23;;;;;;;7.45;2.53;;;16.20;99.90;;;;;;5068930;28;20370;-79
2022/10/27 06:58:49;;;;;;;6.10;2.10;;;16.20;99.90;;;;;;5074698;28;20566;-79
2022/10/27 07:01:15;;;;;;;6.68;2.40;;;16.20;99.90;;;;;;5075035;28;20070;-77
2022/10/27 07:03:41;;;;;;;4.63;2.20;;;16.20;99.80;;;;;;5077368;28;20024;-78
2022/10/27 07:06:06;;;;;;;3.78;2.35;;;16.10;99.90;;;;;;5078540;28;20489;-77
2022/10/27 07:08:32;;;;;;;8.32;2.58;;;16.10;99.90;;;;;;5075757;28;20453;-78
2022/10/27 07:10:58;;;;;;;3.33;2.13;;;16.10;99.90;;;;;;5071712;28;20040;-78
2022/10/27 07:13:24;;;;;;;7.55;2.30;;;16.10;99.80;;;;;;5075790;28;20028;-77
2022/10/27 07:15:50;;;;;;;6.07;2.45;;;16.10;99.80;;;;;;5076484;28;20040;-77
2022/10/27 07:18:15;;;;;;;7.13;2.47;;;16.00;99.90;;;;;;5067521;28;20102;-75
2022/10/27 07:20:44;;;;;;;7.47;2.70;;;16.00;99.90;;;;;;5067586;28;20052;-76
2022/10/27 07:23:11;;;;;;;5.32;2.35;;;16.00;99.90;;;;;;5076635;28;20025;-76
2022/10/27 07:25:37;;;;;;;6.32;2.65;;;16.00;99.90;;;;;;5074638;28;20021;-76
2022/10/27 07:28:05;;;;;;;6.93;2.25;;;16.10;99.90;;;;;;5074484;28;20039;-76
2022/10/27 07:30:36;;;;;;;3.78;2.10;;;16.10;99.90;;;;;;5075911;28;20077;-76
2022/10/27 07:33:03;;;;;;;6.18;2.63;;;16.10;99.90;;;;;;5064604;28;20055;-76
2022/10/27 07:35:28;;;;;;;8.23;2.78;;;16.10;99.90;;;;;;5076528;28;20020;-77
2022/10/27 07:37:54;;;;;;;6.88;2.78;;;16.10;99.90;;;;;;5075656;28;20407;-76
2022/10/27 07:40:22;;;;;;;4.95;2.55;;;16.00;99.90;;;;;;5078518;28;20027;-77
2022/10/27 07:42:49;;;;;;;6.28;2.50;;;16.00;99.90;;;;;;5067990;28;20021;-77
2022/10/27 07:45:17;;;;;;;3.97;2.42;;;16.10;99.90;;;;;;5077671;28;20389;-77
2022/10/27 07:47:48;;;;;;;7.53;2.42;;;16.10;99.90;;;;;;5071019;28;20099;-77
2022/10/27 07:50:14;;;;;;;7.70;2.85;;;16.10;99.90;;;;;;5077212;28;20032;-77
2022/10/27 07:52:44;;;;;;;6.45;3.08;;;16.20;99.90;;;;;;5075146;28;20078;-75
2022/10/27 07:55:11;;;;;;;7.00;2.58;;;16.20;99.90;;;;;;5072761;28;20060;-75
2022/10/27 07:57:37;;;;;;;5.15;2.28;;;16.30;99.90;;;;;;5075936;28;20028;-78
2022/10/27 08:00:09;;;;;;;7.97;2.80;;;16.30;99.90;;;;;;5070661;28;20389;-79
2022/10/27 08:02:34;;;;;;;5.85;2.70;;;16.30;99.90;;;;;;5070364;28;20025;-77
2022/10/27 08:05:00;;;;;;;7.63;2.72;;;16.40;99.90;;;;;;5078309;28;20070;-77
2022/10/27 08:07:27;;;;;;;8.73;2.97;;;16.40;99.90;;;;;;5078813;28;20058;-77
2022/10/27 08:09:52;;;;;;;8.68;2.92;;;16.50;99.90;;;;;;5064348;28;20127;-78
2022/10/27 08:12:18;;;;;;;6.05;2.85;;;16.50;99.90;;;;;;5078388;28;20066;-77
2022/10/27 08:14:43;;;;;;;4.60;2.65;;;16.50;99.90;;;;;;5076721;28;20032;-78
2022/10/27 08:17:09;;;;;;;8.48;2.88;;;16.50;99.90;;;;;;5077451;28;20044;-75
2022/10/27 08:19:35;;;;;;;6.35;2.60;;;16.50;99.90;;;;;;5075166;28;20116;-76
2022/10/27 08:22:00;;;;;;;7.95;2.83;;;16.50;99.90;;;;;;5075978;28;20473;-75
2022/10/27 08:24:26;;;;;;;6.88;2.92;;;16.50;99.90;;;;;;5076032;28;20241;-67
2022/10/27 08:26:51;;;;;;;7.82;3.40;;;16.50;99.90;;;;;;5076706;28;20136;-70
2022/10/27 08:29:17;;;;;;;6.43;3.08;;;16.50;99.90;;;;;;5075028;28;20493;-68
2022/10/27 08:31:43;;;;;;;7.75;3.00;;;16.50;99.90;;;;;;5072350;28;20032;-68
2022/10/27 08:34:08;;;;;;;9.88;3.10;;;16.60;99.90;;;;;;5070871;28;20043;-68
2022/10/27 08:36:37;;;;;;;6.70;3.00;;;16.60;99.90;;;;;;5065016;28;20397;-69
2022/10/27 08:39:08;;;;;;;7.72;2.95;;;16.60;99.90;;;;;;5070292;28;20108;-68
2022/10/27 08:42:01;;;;;;;6.05;3.20;;;16.60;99.90;;;;;;5067959;28;20032;-68
2022/10/27 08:44:40;;;;;;;6.87;2.93;;;16.60;99.90;;;;;;5076262;28;20036;-67
2022/10/27 08:47:14;;;;;;;8.13;3.55;;;16.60;99.90;;;;;;5073598;28;20789;-67
2022/10/27 08:49:43;;;;;;;8.52;3.20;;;16.70;99.90;;;;;;5064029;28;20025;-68
2022/10/27 08:52:39;;;;;;;11.40;3.72;;;16.70;99.90;;;;;;5066959;28;20060;-67
2022/10/27 08:55:14;;;;;;;11.38;3.47;;;16.70;99.90;;;;;;5068040;28;20110;-67
2022/10/27 08:57:47;;;;;;;10.38;3.50;;;16.70;99.90;;;;;;5075459;28;20111;-68
2022/10/27 09:00:14;;;;;;;9.82;3.50;;;16.80;99.90;;;;;;5078956;28;20023;-68
2022/10/27 09:03:28;;;;;;;11.10;3.35;;;16.90;99.90;;;;;;5078100;28;20056;-67
2022/10/27 09:06:36;;;;;;;9.38;3.67;;;17.00;99.90;;;;;;5027483;28;20042;-67
2022/10/27 09:09:26;;;;;;;7.15;3.45;;;17.10;99.90;;;;;;5053265;28;20116;-67
2022/10/27 09:12:16;;;;;;;10.27;3.33;;;17.30;99.90;;;;;;5064434;28;20115;-67
2022/10/27 09:14:53;;;;;;;10.60;3.60;;;17.50;99.90;;;;;;5073850;28;20025;-68
2022/10/27 09:17:31;;;;;;;10.88;3.65;;;17.60;99.90;;;;;;5067331;28;20411;-68
2022/10/27 09:20:39;;;;;;;9.48;3.33;;;17.60;99.90;;;;;;5069971;28;20111;-67
2022/10/27 09:23:12;;;;;;;8.60;3.03;;;17.70;99.90;;;;;;5070386;28;20485;-68
2022/10/27 09:25:40;;;;;;;9.30;3.38;;;17.90;99.90;;;;;;5073502;28;20377;-69
2022/10/27 09:28:34;;;;;;;9.50;3.65;;;17.90;99.90;;;;;;5070972;28;20037;-69
2022/10/27 09:31:02;;;;;;;8.30;3.13;;;18.00;99.90;;;;;;5069334;28;20040;-68
2022/10/27 09:33:32;;;;;;;9.23;2.88;;;18.10;99.90;;;;;;5069891;28;20077;-69
2022/10/27 09:35:58;;;;;;;14.82;3.28;;;18.10;99.90;;;;;;5072372;28;20031;-69
2022/10/27 09:38:27;;;;;;;12.20;3.50;;;18.20;99.90;;;;;;5068593;28;20021;-69
2022/10/27 09:40:53;;;;;;;11.50;3.60;;;18.20;99.90;;;;;;5073832;28;20082;-69
2022/10/27 09:43:21;;;;;;;16.80;4.35;;;18.30;99.90;;;;;;5074811;28;20038;-69
2022/10/27 09:45:54;;;;;;;12.45;3.33;;;18.30;99.90;;;;;;5061463;28;20067;-68
2022/10/27 09:48:23;;;;;;;9.63;3.50;;;18.30;99.90;;;;;;5076313;28;20028;-69
2022/10/27 09:50:54;;;;;;;11.07;3.10;;;18.30;99.90;;;;;;5076245;28;20107;-69
2022/10/27 09:53:41;;;;;;;10.10;3.28;;;18.30;99.90;;;;;;5062661;28;20044;-68
2022/10/27 09:56:11;;;;;;;13.20;3.40;;;18.40;99.90;;;;;;5062915;28;20484;-69
2022/10/27 09:58:44;;;;;;;10.13;3.35;;;18.40;99.90;;;;;;5068401;28;20063;-69
2022/10/27 10:01:10;;;;;;;8.73;3.15;;;18.40;99.90;;;;;;5074694;28;20059;-69
2022/10/27 10:03:37;;;;;;;12.85;3.38;;;18.50;99.80;;;;;;5073469;28;20029;-69
2022/10/27 10:06:06;;;;;;;13.60;4.10;;;18.50;99.80;;;;;;5063882;28;20505;-69
2022/10/27 10:08:34;;;;;;;11.10;3.40;;;18.50;99.70;;;;;;5062789;28;20033;-69
2022/10/27 10:11:02;;;;;;;12.88;3.67;;;18.50;99.60;;;;;;5095381;28;20112;-68
2022/10/27 10:13:30;;;;;;;12.52;3.67;;;18.60;99.60;;;;;;5060895;28;20507;-68
2022/10/27 10:16:12;;;;;;;8.55;3.10;;;18.60;99.60;;;;;;5077281;28;20051;-69
2022/10/27 10:19:01;;;;;;;7.03;3.08;;;18.50;99.60;;;;;;5070068;28;20122;-69
2022/10/27 10:21:45;;;;;;;12.60;3.30;;;18.60;99.80;;;;;;5065727;28;20325;-71
2022/10/27 10:24:19;;;;;;;11.75;3.58;;;18.60;99.90;;;;;;5083075;28;20062;-69
2022/10/27 10:26:47;;;;;;;8.88;2.97;;;18.60;99.70;;;;;;5062744;28;20106;-71
2022/10/27 10:29:38;;;;;;;10.20;3.28;;;18.70;99.70;;;;;;5063776;28;20033;-68
2022/10/27 10:32:18;;;;;;;9.98;3.20;;;18.70;99.70;;;;;;5075468;28;20033;-68
2022/10/27 10:34:44;;;;;;;9.23;3.13;;;18.80;99.70;;;;;;5066195;28;20047;-68
2022/10/27 10:37:29;;;;;;;11.65;3.10;;;18.80;99.60;;;;;;5078139;28;20024;-68
2022/10/27 10:40:07;;;;;;;12.75;3.03;;;18.90;99.90;;;;;;5075950;28;20096;-69
2022/10/27 10:42:33;;;;;;;8.60;2.72;;;18.90;99.80;;;;;;5076183;28;20025;-68
2022/10/27 10:45:22;;;;;;;9.07;3.22;;;19.00;99.50;;;;;;5077245;28;20040;-68
2022/10/27 10:47:54;;;;;;;10.70;3.85;;;19.10;99.60;;;;;;5077268;28;20028;-68
2022/10/27 10:50:21;;;;;;;11.18;3.58;;;19.10;99.30;;;;;;5066483;28;20033;-68
2022/10/27 10:52:50;;;;;;;6.57;3.17;;;19.20;99.30;;;;;;5067909;28;20108;-68
2022/10/27 10:55:33;;;;;;;12.23;3.03;;;19.20;99.50;;;;;;5066761;28;20041;-77
2022/10/27 10:58:00;;;;;;;13.27;4.45;;;19.30;99.60;;;;;;5061672;28;20089;-68
2022/10/27 11:00:26;;;;;;;12.05;3.35;;;19.40;99.10;;;;;;5069049;28;20031;-69
2022/10/27 11:02:58;;;;;;;10.07;3.67;;;19.50;99.00;;;;;;5074188;28;20099;-68
2022/10/27 11:05:29;;;;;;;13.43;3.53;;;19.60;99.00;;;;;;5077669;28;20028;-68
2022/10/27 11:07:55;;;;;;;8.30;3.13;;;19.60;98.80;;;;;;5071294;28;20035;-68
2022/10/27 11:10:32;;;;;;;11.77;3.28;;;19.60;98.20;;;;;;5091637;28;20111;-69
2022/10/27 11:13:11;;;;;;;9.00;2.63;;;19.60;98.40;;;;;;5062058;28;20523;-68
2022/10/27 11:15:51;;;;;;;10.52;3.30;;;19.70;98.90;;;;;;5075902;28;20059;-69
2022/10/27 11:18:24;;;;;;;12.43;3.63;;;19.80;99.10;;;;;;5079120;28;20077;-68
2022/10/27 11:21:00;;;;;;;8.77;3.42;;;19.80;98.70;;;;;;5085848;28;20492;-70
2022/10/27 11:23:30;;;;;;;10.32;3.20;;;19.90;98.70;;;;;;5074969;28;20508;-68
2022/10/27 11:25:58;;;;;;;9.15;2.80;;;20.10;98.40;;;;;;5080434;28;20024;-70
2022/10/27 11:28:36;;;;;;;7.32;2.85;;;20.10;98.10;;;;;;5069244;28;20025;-70
2022/10/27 11:31:08;;;;;;;9.20;3.15;;;20.20;98.10;;;;;;5070647;28;20116;-70
2022/10/27 11:33:46;;;;;;;8.48;2.60;;;20.20;97.50;;;;;;5077252;28;20024;-70
2022/10/27 11:36:21;;;;;;;9.75;2.78;;;20.20;97.70;;;;;;5077859;28;20023;-71
2022/10/27 11:39:00;;;;;;;11.23;3.15;;;20.10;97.30;;;;;;5078340;28;20017;-70
2022/10/27 11:41:44;;;;;;;9.10;2.95;;;20.10;97.70;;;;;;5064135;28;20029;-72
2022/10/27 11:44:28;;;;;;;12.00;3.17;;;20.20;98.00;;;;;;5062071;28;20059;-69
2022/10/27 11:47:30;;;;;;;7.40;3.17;;;20.10;97.50;;;;;;5078176;28;20089;-68
2022/10/27 11:50:03;;;;;;;10.15;3.10;;;20.20;97.90;;;;;;5051212;28;20044;-68
2022/10/27 11:52:37;;;;;;;11.25;3.42;;;20.30;97.20;;;;;;5078118;28;20136;-69
2022/10/27 11:55:05;;;;;;;9.82;2.70;;;20.40;97.00;;;;;;5068474;28;20036;-69
2022/10/27 11:57:39;;;;;;;12.27;3.00;;;20.40;96.80;;;;;;5067998;28;20037;-69
2022/10/27 12:00:14;;;;;;;11.07;3.17;;;20.40;96.80;;;;;;5077623;28;20031;-69
2022/10/27 12:03:05;;;;;;;9.80;3.05;;;20.30;97.00;;;;;;5081371;28;20504;-69
2022/10/27 12:05:57;;;;;;;13.15;3.22;;;20.30;97.30;;;;;;5067344;28;20481;-69
2022/10/27 12:08:35;;;;;;;7.07;2.60;;;20.40;97.20;;;;;;5061833;28;20054;-68
2022/10/27 12:11:36;;;;;;;10.95;3.17;;;20.30;96.90;;;;;;5077737;28;20020;-68
2022/10/27 12:14:21;;;;;;;9.57;2.75;;;20.40;97.30;;;;;;5074073;28;20111;-69
2022/10/27 12:17:03;;;;;;;12.25;2.90;;;20.40;96.90;;;;;;5075222;28;20045;-68
2022/10/27 12:19:33;;;;;;;11.68;2.90;;;20.40;96.80;;;;;;5076049;28;20024;-68
2022/10/27 12:22:08;;;;;;;8.35;3.10;;;20.50;97.10;;;;;;5075822;28;20025;-69
2022/10/27 12:24:39;;;;;;;10.30;2.97;;;20.60;97.10;;;;;;5074746;28;20071;-69
2022/10/27 12:27:29;;;;;;;9.70;3.20;;;20.60;96.70;;;;;;5080078;28;20021;-69
2022/10/27 12:30:00;;;;;;;12.88;3.03;;;20.70;96.60;;;;;;5068402;28;20028;-69
2022/10/27 12:32:32;;;;;;;10.05;3.50;;;20.80;96.40;;;;;;5064907;28;20017;-69
2022/10/27 12:35:25;;;;;;;9.88;3.10;;;20.80;96.00;;;;;;5076362;28;20024;-69
2022/10/27 12:38:04;;;;;;;8.38;2.88;;;20.80;95.90;;;;;;5070147;28;20028;-69
2022/10/27 12:40:39;;;;;;;6.78;2.90;;;20.90;96.20;;;;;;5076643;28;20020;-69
2022/10/27 12:43:13;;;;;;;11.35;3.63;;;21.00;95.90;;;;;;5075805;28;20021;-70
2022/10/27 12:45:39;;;;;;;9.30;2.70;;;21.00;95.20;;;;;;5075114;28;20469;-69
2022/10/27 12:48:22;;;;;;;7.90;3.03;;;21.00;95.00;;;;;;5077656;28;20017;-70
2022/10/27 12:50:54;;;;;;;10.32;3.00;;;21.00;95.40;;;;;;5077546;28;20020;-69
2022/10/27 12:53:39;;;;;;;11.10;3.40;;;21.10;95.60;;;;;;5070298;28;20053;-69
2022/10/27 12:56:41;;;;;;;9.13;3.40;;;21.10;95.50;;;;;;5066743;28;20028;-69
2022/10/27 12:59:18;;;;;;;9.75;3.00;;;21.10;95.60;;;;;;5076223;28;20389;-69
2022/10/27 13:01:57;;;;;;;12.13;3.42;;;21.10;94.70;;;;;;5068464;28;20017;-69
2022/10/27 13:04:44;;;;;;;9.48;3.22;;;21.10;95.50;;;;;;5073945;28;20016;-69